Time;durP1;ratioP1;P1;durP2;ratioP2;P2;SDS_P1;SDS_P2;PMS_P1;PMS_P2;Temp;Humidity;BMP_temperature;BMP_pressure;BME280_temperature;BME280_humidity;BME280_pressure;Samples;Min_cycle;Max_cycle;Signal;HPM_P1;HPM_P2
2020/12/24 00:01:43;;;;;;;12.48;2.67;;;;;;;8.14;86.59;100415.88;10372643;28;20783;-78
2020/12/24 00:06:43;;;;;;;14.75;2.80;;;;;;;8.35;87.05;100443.25;10386396;28;20049;-78
2020/12/24 00:11:44;;;;;;;10.40;3.10;;;;;;;8.46;87.42;100460.41;10389833;28;20041;-78
2020/12/24 00:16:44;;;;;;;14.13;3.70;;;;;;;8.80;86.85;100516.53;10389266;28;20069;-78
2020/12/24 00:21:45;;;;;;;17.92;3.80;;;;;;;8.85;86.59;100524.34;10389749;28;20547;-78
2020/12/24 00:26:45;;;;;;;18.95;3.50;;;;;;;8.72;89.14;100504.81;10391349;28;20061;-78
2020/12/24 00:31:46;;;;;;;14.95;3.55;;;;;;;8.65;90.05;100488.50;10379799;28;20084;-78
2020/12/24 00:36:46;;;;;;;11.55;3.10;;;;;;;8.56;91.42;100506.78;10385590;28;20204;-78
2020/12/24 00:41:47;;;;;;;13.07;2.47;;;;;;;8.44;91.98;100508.50;10385427;28;20041;-76
2020/12/24 00:46:47;;;;;;;9.52;2.25;;;;;;;8.44;91.75;100500.41;10390026;28;20049;-76
2020/12/24 00:51:48;;;;;;;10.30;1.77;;;;;;;8.51;92.06;100510.53;10392081;28;20073;-77
2020/12/24 00:56:48;;;;;;;8.25;1.67;;;;;;;8.43;92.42;100500.75;10384063;28;20033;-78
2020/12/24 01:01:49;;;;;;;11.23;1.65;;;;;;;7.88;91.96;100433.41;10387174;28;20045;-78
2020/12/24 01:06:49;;;;;;;16.58;3.80;;;;;;;8.08;92.23;100476.50;10389109;28;20069;-77
2020/12/24 01:11:49;;;;;;;17.85;2.90;;;;;;;8.18;91.13;100486.72;10394320;28;20414;-76
2020/12/24 01:16:50;;;;;;;16.55;2.95;;;;;;;7.81;90.28;100425.16;10388477;28;20047;-77
2020/12/24 01:21:50;;;;;;;17.30;3.88;;;;;;;8.12;91.15;100482.75;10392615;28;20042;-77
2020/12/24 01:26:51;;;;;;;13.75;3.40;;;;;;;8.03;91.08;100491.78;10386158;28;20052;-77
2020/12/24 01:31:52;;;;;;;15.40;3.90;;;;;;;7.69;90.71;100438.69;10387184;28;20041;-77
2020/12/24 01:37:02;;;;;;;23.40;5.20;;;;;;;7.74;90.59;100446.53;10388786;28;20069;-77
2020/12/24 01:42:05;;;;;;;;;;;;;;;8.26;90.48;100510.00;10386148;28;20492;-77
2020/12/24 01:47:05;;;;;;;24.30;4.30;;;;;;;8.36;89.91;100509.44;10385577;28;19924;-77
2020/12/24 01:57:45;;;;;;;19.60;4.55;;;;;;;8.13;88.42;100462.75;10386576;28;20041;-78
2020/12/24 02:02:46;;;;;;;16.83;3.55;;;;;;;7.86;88.00;100438.34;10384117;28;20046;-78
2020/12/24 02:07:46;;;;;;;18.38;4.28;;;;;;;8.17;88.26;100485.16;10389430;28;20422;-77
2020/12/24 02:12:47;;;;;;;11.55;2.70;;;;;;;8.17;86.44;100474.41;10383889;28;20067;-78
2020/12/24 02:17:47;;;;;;;11.80;3.22;;;;;;;7.98;86.61;100451.69;10382816;28;20041;-78
2020/12/24 02:22:48;;;;;;;12.57;2.20;;;;;;;8.28;86.55;100513.13;10384629;28;20395;-77
2020/12/24 02:27:48;;;;;;;13.63;2.38;;;;;;;8.17;87.12;100502.09;10382928;28;20033;-78
2020/12/24 02:32:49;;;;;;;10.25;2.13;;;;;;;7.89;87.69;100453.78;10383613;28;20052;-78
2020/12/24 02:37:49;;;;;;;9.80;2.05;;;;;;;8.19;87.20;100504.44;10382335;28;20053;-78
2020/12/24 02:42:50;;;;;;;13.07;2.30;;;;;;;7.78;87.85;100437.41;10381923;28;20068;-78
2020/12/24 02:47:50;;;;;;;16.58;3.28;;;;;;;7.94;88.06;100466.19;10386245;28;20115;-78
2020/12/24 02:52:51;;;;;;;14.15;2.70;;;;;;;8.13;88.46;100484.31;10383331;28;20069;-77
2020/12/24 02:57:51;;;;;;;17.88;3.65;;;;;;;7.86;87.78;100442.94;10383198;28;20123;-77
2020/12/24 03:02:52;;;;;;;17.58;3.30;;;;;;;8.19;88.37;100493.69;10386411;28;20041;-78
2020/12/24 03:07:52;;;;;;;17.30;3.38;;;;;;;8.20;88.51;100492.53;10386466;28;20516;-77
2020/12/24 03:12:53;;;;;;;17.45;3.10;;;;;;;7.81;89.28;100441.31;10391460;28;20045;-77
2020/12/24 03:17:53;;;;;;;11.35;3.05;;;;;;;7.63;89.59;100404.00;10389177;28;20042;-77
2020/12/24 03:22:54;;;;;;;18.52;2.97;;;;;;;7.94;90.94;100461.56;10389535;28;20049;-77
2020/12/24 03:27:54;;;;;;;13.88;3.17;;;;;;;7.76;90.82;100428.09;10380411;28;20052;-77
2020/12/24 03:32:55;;;;;;;11.18;2.67;;;;;;;7.92;91.44;100458.44;10385574;28;20041;-77
2020/12/24 03:37:55;;;;;;;17.48;3.97;;;;;;;7.83;91.78;100447.91;10389176;28;20092;-77
2020/12/24 03:42:56;;;;;;;15.10;4.07;;;;;;;8.04;92.39;100487.97;10390977;28;20038;-77
2020/12/24 03:47:57;;;;;;;20.80;2.72;;;;;;;7.67;92.85;100430.22;10369821;28;20045;-76
2020/12/24 03:53:00;;;;;;;17.92;3.60;;;;;;;7.59;92.51;100424.66;10379888;28;20111;-78
2020/12/24 03:58:01;;;;;;;20.63;4.30;;;;;;;8.02;91.76;100490.22;10387945;28;20054;-76
2020/12/24 04:03:01;;;;;;;18.40;3.17;;;;;;;7.33;92.43;100389.44;10394571;28;20045;-77
2020/12/24 04:08:02;;;;;;;15.52;3.50;;;;;;;7.75;92.03;100431.94;10392922;28;20055;-77
2020/12/24 04:13:02;;;;;;;24.02;4.22;;;;;;;7.88;92.53;100462.19;10393603;28;20557;-77
2020/12/24 04:18:03;;;;;;;18.08;3.75;;;;;;;7.81;93.06;100471.69;10393107;28;20096;-77
2020/12/24 04:23:03;;;;;;;14.52;3.58;;;;;;;7.46;92.85;100420.50;10390216;28;20041;-77
2020/12/24 04:28:05;;;;;;;15.68;2.95;;;;;;;7.56;94.09;100452.25;10390631;28;20072;-77
2020/12/24 04:33:06;;;;;;;21.40;3.57;;;;;;;7.69;94.40;100462.91;10388791;28;20224;-77
2020/12/24 04:38:07;;;;;;;18.70;3.13;;;;;;;7.34;94.36;100417.91;10393082;28;20056;-77
2020/12/24 04:43:07;;;;;;;17.75;3.67;;;;;;;7.22;94.63;100404.53;10392225;28;20037;-77
2020/12/24 04:48:09;;;;;;;17.13;3.53;;;;;;;7.66;95.90;100471.69;10368062;28;20049;-77
2020/12/24 04:53:09;;;;;;;13.68;3.30;;;;;;;7.70;97.14;100483.31;10391636;28;20432;-77
2020/12/24 04:58:10;;;;;;;19.55;3.30;;;;;;;7.06;97.65;100399.94;10390888;28;20052;-77
2020/12/24 05:03:11;;;;;;;22.42;4.15;;;;;;;7.63;98.79;100482.00;10392393;28;20119;-78
2020/12/24 05:08:12;;;;;;;22.10;4.43;;;;;;;7.43;99.51;100458.84;10384317;28;20096;-77
2020/12/24 05:13:17;;;;;;;20.58;4.57;;;;;;;7.46;99.62;100468.91;10388792;28;20045;-77
2020/12/24 05:18:19;;;;;;;20.17;4.10;;;;;;;7.47;100.00;100475.84;10392801;28;20049;-78
2020/12/24 05:23:20;;;;;;;21.20;5.33;;;;;;;7.56;100.00;100495.28;10379187;28;20099;-79
2020/12/24 05:28:25;;;;;;;17.30;5.03;;;;;;;7.33;100.00;100475.50;10385370;28;20075;-79
2020/12/24 05:33:29;;;;;;;14.85;5.35;;;;;;;6.69;100.00;100384.03;10391847;28;20038;-79
2020/12/24 05:38:33;;;;;;;20.15;4.55;;;;;;;7.32;100.00;100516.97;10391629;28;20460;-78
2020/12/24 05:43:33;;;;;;;8.48;1.80;;;;;;;7.25;91.34;100549.81;10388736;28;20083;-77
2020/12/24 05:48:34;;;;;;;1.20;0.70;;;;;;;6.68;91.18;100583.94;10391479;28;20045;-78
2020/12/24 05:53:34;;;;;;;0.93;0.55;;;;;;;6.40;91.53;100634.06;10371362;28;20490;-79
2020/12/24 05:58:40;;;;;;;1.13;0.60;;;;;;;5.82;92.27;100597.28;10387626;28;20053;-79
2020/12/24 06:04:01;;;;;;;0.95;0.40;;;;;;;5.89;92.58;100653.88;10378417;28;22199;-79
2020/12/24 06:09:10;;;;;;;1.48;0.60;;;;;;;5.81;92.67;100662.81;10325847;28;20065;-79
2020/12/24 06:14:26;;;;;;;2.95;1.80;;;;;;;5.91;91.75;100699.94;10330605;28;20271;-79
2020/12/24 06:19:28;;;;;;;1.83;0.57;;;;;;;5.57;94.08;100694.88;10345388;28;20057;-79
2020/12/24 06:24:30;;;;;;;1.33;0.50;;;;;;;5.38;93.12;100714.88;10332796;28;20061;-79
2020/12/24 06:29:36;;;;;;;0.93;0.50;;;;;;;5.29;92.52;100706.13;10328952;28;20044;-80
2020/12/24 06:34:40;;;;;;;1.25;0.40;;;;;;;5.07;93.38;100710.69;10347309;28;20403;-80
2020/12/24 06:39:51;;;;;;;0.73;0.32;;;;;;;5.42;91.90;100785.50;10348012;28;20058;-79
2020/12/24 06:44:51;;;;;;;1.08;0.30;;;;;;;5.20;91.34;100780.44;10319606;28;20136;-80
2020/12/24 06:49:52;;;;;;;0.93;0.30;;;;;;;5.13;91.01;100782.81;10313204;28;20050;-79
2020/12/24 06:55:11;;;;;;;0.65;0.30;;;;;;;5.05;91.47;100797.84;10322265;28;20514;-79
2020/12/24 07:00:18;;;;;;;1.45;0.30;;;;;;;5.39;91.98;100882.66;10344768;28;20056;-79
2020/12/24 07:05:41;;;;;;;1.25;0.40;;;;;;;5.38;90.83;100891.81;10324550;28;20143;-78
2020/12/24 07:10:46;;;;;;;1.17;0.50;;;;;;;5.28;90.69;100913.63;10348378;28;20030;-78
2020/12/24 07:15:49;;;;;;;0.65;0.40;;;;;;;5.14;92.17;100908.47;10311374;28;20046;-78
2020/12/24 07:20:50;;;;;;;;;;;;;;;5.42;90.87;100957.09;10315614;28;20112;-78
2020/12/24 07:25:52;;;;;;;0.90;0.30;;;;;;;4.64;90.12;100858.97;10325714;28;20008;-79
2020/12/24 07:30:57;;;;;;;0.40;0.30;;;;;;;5.37;90.09;100959.94;10319587;28;20049;-79
2020/12/24 07:35:57;;;;;;;2.03;1.15;;;;;;;5.38;89.71;100972.22;10332128;28;20053;-79
2020/12/24 07:40:58;;;;;;;0.30;0.30;;;;;;;5.32;89.69;100983.47;10308575;28;20038;-79
2020/12/24 07:46:06;;;;;;;0.60;0.47;;;;;;;5.46;90.07;101011.66;10335596;28;20052;-79
2020/12/24 07:51:08;;;;;;;1.20;0.70;;;;;;;5.37;89.83;101023.50;10349500;28;20483;-78
2020/12/24 07:56:11;;;;;;;2.70;0.60;;;;;;;4.92;91.12;100979.13;10320436;28;20066;-79
2020/12/24 08:01:14;;;;;;;0.95;0.60;;;;;;;5.47;90.40;101060.69;10322549;28;20049;-78
2020/12/24 08:06:14;;;;;;;3.22;1.50;;;;;;;5.50;90.82;101085.00;10363112;28;20510;-78
2020/12/24 08:11:15;;;;;;;2.25;0.93;;;;;;;5.47;90.34;101066.84;10396690;28;20034;-77
2020/12/24 08:16:16;;;;;;;1.48;1.08;;;;;;;5.64;89.74;101102.75;10377265;28;20068;-78
2020/12/24 08:21:26;;;;;;;2.90;0.90;;;;;;;5.68;90.44;101130.53;10377089;28;20042;-78
2020/12/24 08:26:27;;;;;;;3.58;2.20;;;;;;;5.66;90.19;101138.09;10375823;28;20065;-77
2020/12/24 08:31:29;;;;;;;2.90;0.90;;;;;;;4.96;90.68;101036.34;10390998;28;20064;-77
2020/12/24 08:36:29;;;;;;;1.05;0.75;;;;;;;5.66;91.35;101154.19;10377531;28;20132;-78
2020/12/24 08:41:32;;;;;;;3.95;0.93;;;;;;;5.71;90.71;101168.25;10389634;28;20103;-78
2020/12/24 08:46:33;;;;;;;2.13;0.80;;;;;;;5.70;91.15;101176.59;10377308;28;20034;-78
2020/12/24 08:51:33;;;;;;;3.17;1.08;;;;;;;5.62;90.51;101163.97;10366015;28;20045;-77
2020/12/24 08:56:37;;;;;;;2.85;1.10;;;;;;;5.37;90.94;101142.25;10383729;28;20042;-77
2020/12/24 09:01:39;;;;;;;1.50;0.80;;;;;;;5.73;91.32;101203.56;10364756;28;20049;-78
2020/12/24 09:06:40;;;;;;;2.42;0.80;;;;;;;5.35;92.46;101165.09;10382624;28;20057;-78
2020/12/24 09:11:40;;;;;;;3.17;0.90;;;;;;;5.66;91.76;101229.28;10370339;28;20049;-78
2020/12/24 09:16:52;;;;;;;4.07;0.82;;;;;;;5.45;91.92;101203.09;10388010;28;20521;-78
2020/12/24 09:21:54;;;;;;;2.72;0.90;;;;;;;5.90;91.03;101261.81;10364397;28;20068;-80
2020/12/24 09:26:55;;;;;;;2.03;0.98;;;;;;;5.77;90.78;101246.66;10388738;28;20095;-76
2020/12/24 09:31:57;;;;;;;3.53;1.00;;;;;;;5.91;91.55;101279.47;10388822;28;20045;-77
2020/12/24 09:36:58;;;;;;;2.37;0.90;;;;;;;5.55;91.62;101222.66;10366718;28;20128;-84
2020/12/24 09:41:58;;;;;;;4.97;1.50;;;;;;;5.91;92.02;101292.88;10388408;28;20418;-79
2020/12/24 09:46:59;;;;;;;5.53;1.20;;;;;;;5.88;92.61;101296.22;10384368;28;20127;-79
2020/12/24 09:52:00;;;;;;;4.55;0.90;;;;;;;5.95;90.48;101311.06;10391077;28;20130;-76
2020/12/24 09:57:00;;;;;;;2.42;0.90;;;;;;;5.71;90.48;101312.28;10387503;28;20038;-76
2020/12/24 10:02:03;;;;;;;9.43;1.60;;;;;;;6.03;92.98;101361.28;10385654;28;20479;-77
2020/12/24 10:07:03;;;;;;;9.10;1.80;;;;;;;5.67;93.70;101330.13;10391546;28;20065;-78
2020/12/24 10:12:05;;;;;;;4.03;1.33;;;;;;;6.02;92.06;101376.59;10391022;28;20103;-78
2020/12/24 10:17:05;;;;;;;3.85;0.90;;;;;;;5.68;92.71;101334.38;10387136;28;20041;-76
2020/12/24 10:22:06;;;;;;;3.28;1.00;;;;;;;5.25;89.88;101251.97;10386278;28;20453;-77
2020/12/24 10:27:07;;;;;;;3.10;0.68;;;;;;;5.38;89.40;101256.41;10384582;28;20049;-77
2020/12/24 10:32:07;;;;;;;6.70;0.70;;;;;;;6.38;85.82;101353.22;10386119;28;20046;-77
2020/12/24 10:37:08;;;;;;;4.03;0.68;;;;;;;6.01;87.43;101320.53;10371282;28;20493;-86
2020/12/24 10:42:08;;;;;;;2.58;0.68;;;;;;;6.21;86.96;101341.41;10388290;28;20045;-83
2020/12/24 10:47:09;;;;;;;6.95;1.13;;;;;;;6.19;88.45;101364.28;10392877;28;20041;-76
2020/12/24 10:52:11;;;;;;;4.10;0.77;;;;;;;6.08;88.13;101324.31;10385320;28;20068;-76
2020/12/24 10:57:12;;;;;;;2.42;0.60;;;;;;;6.32;89.12;101355.25;10389370;28;20034;-75
2020/12/24 11:02:12;;;;;;;7.55;1.15;;;;;;;6.29;89.80;101345.16;10384919;28;20057;-76
2020/12/24 11:07:13;;;;;;;5.13;1.30;;;;;;;6.22;90.33;101321.47;10369590;28;20046;-76
2020/12/24 11:12:13;;;;;;;5.55;1.20;;;;;;;6.19;90.08;101289.91;10392786;28;20049;-77
2020/12/24 11:17:14;;;;;;;6.97;1.27;;;;;;;6.49;89.53;101322.22;10370868;28;20151;-74
2020/12/24 11:22:14;;;;;;;5.50;1.00;;;;;;;6.42;88.33;101324.59;10400988;28;20052;-75
2020/12/24 11:27:15;;;;;;;10.52;1.10;;;;;;;6.33;88.32;101321.94;10393020;28;20042;-75
2020/12/24 11:32:15;;;;;;;9.27;1.65;;;;;;;6.12;88.99;101278.88;10382875;28;20072;-75
2020/12/24 11:37:15;;;;;;;10.77;1.13;;;;;;;6.48;88.62;101328.72;10389541;28;20821;-76
2020/12/24 11:42:16;;;;;;;9.05;1.35;;;;;;;6.21;87.67;101271.59;10398036;28;20569;-74
2020/12/24 11:47:16;;;;;;;10.30;1.60;;;;;;;6.66;87.05;101324.88;10396242;28;20490;-76
2020/12/24 11:52:17;;;;;;;11.23;2.08;;;;;;;6.86;88.16;101338.72;10393490;28;20038;-75
2020/12/24 11:57:17;;;;;;;8.38;1.40;;;;;;;6.84;84.99;101373.19;10392867;28;20512;-76
2020/12/24 12:02:18;;;;;;;7.53;1.67;;;;;;;6.77;86.42;101366.44;10392045;28;20857;-73
2020/12/24 12:07:18;;;;;;;18.75;2.42;;;;;;;6.97;88.20;101373.00;10403340;28;20084;-76
2020/12/24 12:12:19;;;;;;;7.53;1.30;;;;;;;6.99;87.21;101392.28;10387805;28;20073;-76
2020/12/24 12:17:22;;;;;;;12.55;1.70;;;;;;;6.98;87.62;101373.78;10396435;28;20061;-78
2020/12/24 12:22:22;;;;;;;12.63;2.22;;;;;;;6.94;87.47;101378.25;10393126;28;20046;-77
2020/12/24 12:27:22;;;;;;;16.63;2.20;;;;;;;6.80;86.01;101372.25;10395118;28;20509;-78
2020/12/24 12:32:23;;;;;;;10.32;1.50;;;;;;;6.61;85.88;101338.50;10396201;28;20498;-77
2020/12/24 12:37:23;;;;;;;8.63;1.73;;;;;;;7.17;86.40;101376.91;10395066;28;20517;-77
2020/12/24 12:42:24;;;;;;;15.77;2.10;;;;;;;7.51;84.69;101364.38;10391955;28;20045;-77
2020/12/24 12:47:24;;;;;;;11.75;1.90;;;;;;;7.35;85.29;101312.25;10391791;28;20061;-77
2020/12/24 12:52:29;;;;;;;7.88;1.15;;;;;;;7.02;84.25;101325.56;10393835;28;20076;-79
2020/12/24 12:57:30;;;;;;;5.80;1.10;;;;;;;7.04;85.55;101367.13;10393154;28;20041;-76
2020/12/24 13:02:30;;;;;;;5.78;1.00;;;;;;;6.63;84.65;101363.16;10387257;28;20540;-82
2020/12/24 13:07:31;;;;;;;3.88;0.70;;;;;;;6.42;85.12;101340.72;10394844;28;20060;-78
2020/12/24 13:12:31;;;;;;;4.75;0.88;;;;;;;6.94;85.81;101399.75;10389172;28;20045;-79
2020/12/24 13:17:32;;;;;;;5.40;1.00;;;;;;;7.16;84.23;101380.69;10385285;28;20033;-80
2020/12/24 13:22:33;;;;;;;8.07;0.93;;;;;;;7.32;81.62;101393.59;10390931;28;20049;-78
2020/12/24 13:27:34;;;;;;;6.75;1.13;;;;;;;6.95;82.30;101374.44;10387186;28;20501;-79
2020/12/24 13:32:35;;;;;;;6.03;1.15;;;;;;;6.74;80.88;101385.84;10384335;28;20042;-77
2020/12/24 13:37:36;;;;;;;2.03;0.50;;;;;;;6.69;82.58;101415.59;10366041;28;20034;-77
2020/12/24 13:42:37;;;;;;;5.30;1.02;;;;;;;6.00;87.55;101410.22;10380079;28;20042;-77
2020/12/24 13:47:37;;;;;;;4.88;1.10;;;;;;;5.92;87.57;101412.53;10384395;28;20159;-77
2020/12/24 13:52:37;;;;;;;5.22;1.35;;;;;;;5.66;89.55;101395.59;10378032;28;20045;-79
2020/12/24 13:57:38;;;;;;;11.90;2.88;;;;;;;5.93;90.62;101432.91;10367487;28;20044;-79
2020/12/24 14:02:38;;;;;;;14.27;2.85;;;;;;;5.96;91.84;101436.88;10381507;28;20041;-77
2020/12/24 14:07:39;;;;;;;13.52;4.03;;;;;;;5.97;89.12;101410.84;10387890;28;20045;-76
2020/12/24 14:12:39;;;;;;;5.88;1.50;;;;;;;5.96;87.34;101431.53;10372110;28;20041;-78
2020/12/24 14:17:40;;;;;;;9.30;1.10;;;;;;;5.50;88.93;101441.63;10386964;28;20096;-78
2020/12/24 14:22:40;;;;;;;4.70;1.27;;;;;;;5.77;88.47;101498.84;10386826;28;20809;-78
2020/12/24 14:27:40;;;;;;;7.45;1.25;;;;;;;5.79;87.86;101504.69;10385492;28;20474;-78
2020/12/24 14:32:41;;;;;;;5.68;0.70;;;;;;;5.42;86.64;101450.41;10385145;28;20045;-77
2020/12/24 14:37:41;;;;;;;2.58;0.70;;;;;;;5.24;87.08;101440.69;10387392;28;20037;-78
2020/12/24 14:42:42;;;;;;;2.35;0.80;;;;;;;5.21;87.47;101449.38;10384067;28;20076;-78
2020/12/24 14:47:43;;;;;;;7.82;1.38;;;;;;;5.59;89.40;101518.63;10386440;28;20474;-78
2020/12/24 14:52:43;;;;;;;4.65;0.98;;;;;;;5.62;89.47;101524.19;10379319;28;20037;-79
2020/12/24 14:57:44;;;;;;;4.18;0.90;;;;;;;5.42;90.54;101514.75;10366701;28;20069;-80
2020/12/24 15:02:44;;;;;;;5.45;1.45;;;;;;;5.51;91.33;101545.09;10384273;28;20073;-80
2020/12/24 15:07:45;;;;;;;8.13;2.25;;;;;;;5.07;90.07;101482.38;10382649;28;20077;-76
2020/12/24 15:12:45;;;;;;;30.77;13.77;;;;;;;4.97;91.39;101488.00;10383221;28;20047;-79
2020/12/24 15:17:46;;;;;;;12.63;3.13;;;;;;;5.20;91.91;101544.28;10362097;28;20065;-79
2020/12/24 15:22:46;;;;;;;9.57;1.70;;;;;;;5.15;91.88;101547.88;10383270;28;20060;-78
2020/12/24 15:27:46;;;;;;;14.23;2.47;;;;;;;4.90;93.08;101503.72;10381933;28;20833;-77
2020/12/24 15:32:47;;;;;;;16.92;3.17;;;;;;;5.13;93.01;101538.53;10366342;28;20426;-78
2020/12/24 15:37:47;;;;;;;19.10;3.33;;;;;;;5.37;90.10;101557.78;10385193;28;20057;-77
2020/12/24 15:42:48;;;;;;;18.15;2.10;;;;;;;5.73;87.93;101605.16;10382545;28;20041;-79
2020/12/24 15:47:50;;;;;;;12.48;1.90;;;;;;;5.66;87.83;101600.22;10380320;28;20049;-79
2020/12/24 15:52:54;;;;;;;13.50;1.73;;;;;;;5.37;87.58;101576.56;10386661;28;20037;-78
2020/12/24 15:57:55;;;;;;;9.23;1.48;;;;;;;5.03;86.73;101518.94;10388719;28;20041;-80
2020/12/24 16:02:58;;;;;;;7.57;2.00;;;;;;;5.54;85.93;101612.63;10370146;28;20049;-79
2020/12/24 16:07:58;;;;;;;7.95;1.27;;;;;;;5.39;87.34;101605.75;10373278;28;20057;-79
2020/12/24 16:12:59;;;;;;;7.32;1.80;;;;;;;5.29;88.44;101617.50;10391076;28;20049;-78
2020/12/24 16:17:59;;;;;;;5.47;2.03;;;;;;;5.33;88.34;101645.28;10389078;28;20076;-76
2020/12/24 16:23:00;;;;;;;12.88;2.88;;;;;;;5.22;88.91;101649.28;10368657;28;20106;-75
2020/12/24 16:28:00;;;;;;;15.65;3.58;;;;;;;4.68;89.80;101608.13;10388469;28;20045;-77
2020/12/24 16:33:01;;;;;;;11.95;2.65;;;;;;;4.61;91.81;101625.41;10379695;28;20045;-76
2020/12/24 16:38:04;;;;;;;15.60;3.10;;;;;;;4.36;91.55;101599.16;10390395;28;20060;-76
2020/12/24 16:43:06;;;;;;;11.57;2.20;;;;;;;4.81;91.71;101650.97;10389664;28;20323;-74
2020/12/24 16:48:06;;;;;;;10.50;2.45;;;;;;;4.32;90.60;101580.19;10386754;28;20049;-76
2020/12/24 16:53:07;;;;;;;12.60;2.50;;;;;;;4.99;90.57;101700.16;10383200;28;20049;-75
2020/12/24 16:58:08;;;;;;;16.65;2.63;;;;;;;4.58;89.80;101642.06;10388652;28;20387;-74
2020/12/24 17:03:11;;;;;;;15.90;3.00;;;;;;;4.76;89.34;101658.31;10389276;28;20061;-76
2020/12/24 17:08:12;;;;;;;13.50;2.63;;;;;;;5.07;88.21;101680.69;10385357;28;20100;-74
2020/12/24 17:13:12;;;;;;;7.68;2.05;;;;;;;5.14;88.60;101699.03;10390993;28;20048;-76
2020/12/24 17:18:12;;;;;;;15.32;3.28;;;;;;;5.14;88.53;101700.94;10365995;28;20771;-77
2020/12/24 17:23:13;;;;;;;8.60;2.20;;;;;;;5.11;88.14;101685.47;10370866;28;20516;-75
2020/12/24 17:28:14;;;;;;;10.35;2.80;;;;;;;5.20;86.82;101683.66;10391198;28;20127;-74
2020/12/24 17:33:15;;;;;;;11.15;2.47;;;;;;;4.75;83.87;101613.88;10382687;28;20543;-76
2020/12/24 17:38:15;;;;;;;15.40;3.65;;;;;;;5.32;83.29;101713.41;10381953;28;20064;-77
2020/12/24 17:43:15;;;;;;;8.85;2.83;;;;;;;5.60;80.36;101729.44;10390760;28;20046;-76
2020/12/24 17:48:17;;;;;;;8.90;2.13;;;;;;;5.14;81.51;101641.97;10386716;28;20056;-77
2020/12/24 17:53:18;;;;;;;11.40;2.80;;;;;;;5.49;82.26;101718.91;10389605;28;20449;-75
2020/12/24 17:58:19;;;;;;;16.38;4.00;;;;;;;5.71;81.82;101741.50;10365538;28;20052;-75
2020/12/24 18:03:20;;;;;;;14.90;3.05;;;;;;;5.66;82.88;101745.09;10382817;28;20056;-75
2020/12/24 18:08:20;;;;;;;21.58;5.18;;;;;;;5.33;83.58;101715.00;10377979;28;20489;-76
2020/12/24 18:13:21;;;;;;;12.75;4.47;;;;;;;5.37;84.66;101737.44;10365535;28;20046;-75
2020/12/24 18:18:21;;;;;;;21.52;5.97;;;;;;;5.34;86.91;101764.84;10387165;28;20055;-75
2020/12/24 18:23:22;;;;;;;16.40;6.20;;;;;;;5.14;88.62;101759.91;10384675;28;20045;-74
2020/12/24 18:28:22;;;;;;;26.55;8.32;;;;;;;4.88;88.65;101741.66;10386297;28;20045;-75
2020/12/24 18:33:23;;;;;;;17.90;5.53;;;;;;;4.71;89.82;101730.75;10387083;28;20751;-75
2020/12/24 18:38:23;;;;;;;22.40;4.82;;;;;;;4.94;90.30;101772.63;10380965;28;20057;-75
2020/12/24 18:43:24;;;;;;;18.05;4.18;;;;;;;4.47;90.99;101694.25;10383756;28;20462;-75
2020/12/24 18:48:24;;;;;;;15.82;3.85;;;;;;;4.90;90.87;101782.34;10385728;28;20817;-75
2020/12/24 18:53:24;;;;;;;27.20;4.50;;;;;;;4.69;89.95;101738.28;10385661;28;20391;-75
2020/12/24 18:58:25;;;;;;;22.30;3.90;;;;;;;5.03;88.39;101792.28;10373627;28;20041;-78
2020/12/24 19:03:25;;;;;;;19.15;3.63;;;;;;;4.59;88.67;101734.69;10360514;28;20083;-77
2020/12/24 19:08:26;;;;;;;19.63;4.15;;;;;;;4.46;88.91;101730.13;10383361;28;20092;-77
2020/12/24 19:13:26;;;;;;;20.52;3.65;;;;;;;4.39;89.20;101751.13;10385325;28;20049;-77
2020/12/24 19:18:27;;;;;;;16.98;3.60;;;;;;;4.44;89.69;101753.72;10386043;28;20045;-76
2020/12/24 19:23:27;;;;;;;24.48;3.80;;;;;;;4.75;89.06;101812.91;10364623;28;20045;-77
2020/12/24 19:28:28;;;;;;;16.65;4.22;;;;;;;4.57;88.96;101800.34;10370222;28;20033;-77
2020/12/24 19:33:29;;;;;;;13.20;4.60;;;;;;;4.59;88.53;101804.31;10385976;28;20057;-77
2020/12/24 19:38:29;;;;;;;22.27;6.13;;;;;;;4.45;88.81;101798.16;10374416;28;20045;-78
2020/12/24 19:43:30;;;;;;;13.23;2.80;;;;;;;4.16;88.39;101785.78;10391221;28;20041;-77
2020/12/24 19:48:30;;;;;;;15.73;3.40;;;;;;;4.41;87.94;101819.34;10388650;28;20104;-78
2020/12/24 19:53:32;;;;;;;21.23;3.20;;;;;;;4.15;88.14;101784.16;10392527;28;20033;-77
2020/12/24 19:58:33;;;;;;;11.10;3.10;;;;;;;4.44;87.81;101834.03;10387752;28;20057;-78
2020/12/24 20:03:33;;;;;;;18.73;5.95;;;;;;;4.46;87.47;101842.56;10387094;28;20115;-77
2020/12/24 20:08:34;;;;;;;21.05;5.80;;;;;;;4.41;87.43;101856.03;10364827;28;20049;-76
2020/12/24 20:13:35;;;;;;;21.77;5.82;;;;;;;4.45;87.18;101857.84;10372715;28;20041;-78
2020/12/24 20:18:37;;;;;;;14.68;4.13;;;;;;;4.08;87.37;101799.81;10382764;28;20048;-81
2020/12/24 20:23:38;;;;;;;16.42;3.20;;;;;;;4.18;86.45;101831.75;10373406;28;20033;-78
2020/12/24 20:28:41;;;;;;;12.85;2.80;;;;;;;4.40;85.91;101865.16;10384674;28;20038;-78
2020/12/24 20:33:41;;;;;;;15.52;3.00;;;;;;;4.52;85.04;101857.47;10386113;28;20065;-79
2020/12/24 20:38:42;;;;;;;13.70;3.35;;;;;;;4.45;84.30;101849.03;10367494;28;20048;-79
2020/12/24 20:43:42;;;;;;;18.58;4.07;;;;;;;4.53;84.94;101864.41;10385294;28;20056;-77
2020/12/24 20:48:45;;;;;;;16.92;3.22;;;;;;;4.43;85.11;101886.00;10382671;28;20041;-77
2020/12/24 20:53:46;;;;;;;14.70;2.95;;;;;;;4.43;86.03;101886.00;10383920;28;20030;-77
2020/12/24 20:58:46;;;;;;;12.80;1.85;;;;;;;4.29;85.42;101866.41;10391044;28;20576;-76
2020/12/24 21:03:47;;;;;;;12.48;2.33;;;;;;;4.52;84.79;101905.66;10383259;28;20053;-77
2020/12/24 21:08:48;;;;;;;10.55;1.85;;;;;;;4.40;83.80;101881.22;10375313;28;20672;-77
2020/12/24 21:13:48;;;;;;;10.35;1.50;;;;;;;4.47;83.61;101919.13;10368293;28;20049;-77
2020/12/24 21:18:48;;;;;;;4.82;1.40;;;;;;;4.12;84.64;101901.72;10389325;28;20099;-77
2020/12/24 21:23:50;;;;;;;11.05;2.03;;;;;;;3.98;85.18;101880.22;10360465;28;20120;-76
2020/12/24 21:28:50;;;;;;;8.98;1.35;;;;;;;4.40;84.23;101940.13;10368398;28;20037;-75
2020/12/24 21:33:51;;;;;;;5.18;1.55;;;;;;;3.47;84.13;101795.31;10379277;28;20057;-75
2020/12/24 21:38:52;;;;;;;6.13;0.98;;;;;;;4.36;83.71;101917.69;10383452;28;20490;-76
2020/12/24 21:43:52;;;;;;;6.80;1.08;;;;;;;4.59;86.10;101959.66;10378519;28;20045;-78
2020/12/24 21:48:53;;;;;;;4.47;1.02;;;;;;;4.41;86.79;101941.72;10381039;28;20041;-76
2020/12/24 21:53:53;;;;;;;10.30;1.38;;;;;;;3.77;86.29;101853.75;10388501;28;20045;-76
2020/12/24 21:58:54;;;;;;;7.15;1.40;;;;;;;4.40;87.29;101972.25;10384935;28;20045;-76
2020/12/24 22:03:55;;;;;;;8.65;1.17;;;;;;;4.41;87.83;101984.53;10378053;28;20033;-76
2020/12/24 22:08:59;;;;;;;7.70;1.90;;;;;;;4.44;88.35;101989.31;10334848;28;20096;-78
2020/12/24 22:14:00;;;;;;;7.88;1.42;;;;;;;4.54;87.39;101994.53;10325449;28;20073;-78
2020/12/24 22:19:01;;;;;;;7.30;1.25;;;;;;;4.10;86.97;101931.44;10325673;28;20288;-77
2020/12/24 22:24:01;;;;;;;8.95;2.20;;;;;;;4.48;87.20;101978.84;10340165;28;20030;-79
2020/12/24 22:29:02;;;;;;;5.88;0.98;;;;;;;4.19;87.50;101959.13;10330563;28;20064;-79
2020/12/24 22:34:02;;;;;;;4.25;1.10;;;;;;;4.57;88.18;102020.75;10345370;28;20034;-78
2020/12/24 22:39:03;;;;;;;5.32;1.35;;;;;;;4.48;88.24;101998.38;10325045;28;20033;-78
2020/12/24 22:44:03;;;;;;;12.95;1.25;;;;;;;4.54;88.24;102015.97;10341036;28;20042;-77
2020/12/24 22:49:05;;;;;;;4.43;1.10;;;;;;;4.48;88.01;101995.69;10344542;28;20184;-77
2020/12/24 22:54:05;;;;;;;7.03;1.10;;;;;;;4.28;87.63;101985.25;10326921;28;20034;-77
2020/12/24 22:59:05;;;;;;;6.55;1.30;;;;;;;4.39;87.63;102008.13;10326600;28;20589;-77
2020/12/24 23:04:06;;;;;;;7.70;1.27;;;;;;;4.33;86.58;101993.22;10338066;28;20042;-77
2020/12/24 23:09:06;;;;;;;5.38;1.10;;;;;;;4.42;86.25;101991.47;10322584;28;20037;-79
2020/12/24 23:14:07;;;;;;;5.78;1.33;;;;;;;4.21;86.63;101970.34;10338779;28;20061;-77
2020/12/24 23:19:07;;;;;;;11.57;1.40;;;;;;;4.49;87.41;102018.69;10332889;28;20046;-77